Time;durP1;ratioP1;P1;durP2;ratioP2;P2;SDS_P1;SDS_P2;PMS_P1;PMS_P2;Temp;Humidity;BMP_temperature;BMP_pressure;BME280_temperature;BME280_humidity;BME280_pressure;Samples;Min_cycle;Max_cycle;Signal;HPM_P1;HPM_P2
2023/12/10 00:00:55;;;;;;;7.80;4.23;;;2.60;99.90;2.40;98997.00;;;;4952628;28;93232;-70
2023/12/10 00:03:21;;;;;;;9.03;4.77;;;2.70;99.90;2.40;98970.00;;;;4955523;28;111255;-70
2023/12/10 00:05:47;;;;;;;5.57;4.20;;;2.60;99.90;2.40;98953.00;;;;4953643;28;93278;-71
2023/12/10 00:08:13;;;;;;;6.63;3.83;;;2.20;99.90;2.40;98975.00;;;;4952110;28;94313;-71
2023/12/10 00:10:39;;;;;;;5.00;4.00;;;2.60;99.90;2.40;98971.00;;;;4951572;28;110128;-70
2023/12/10 00:13:05;;;;;;;5.50;4.13;;;2.50;99.90;2.40;98970.00;;;;4950258;28;122493;-70
2023/12/10 00:15:30;;;;;;;6.23;4.10;;;2.50;99.90;2.40;98964.00;;;;4949410;28;93009;-70
2023/12/10 00:17:56;;;;;;;5.33;4.07;;;2.60;99.90;2.40;98968.00;;;;4947743;28;107130;-70
2023/12/10 00:20:22;;;;;;;5.27;3.53;;;2.50;99.90;2.40;98959.00;;;;4952594;28;93974;-72
2023/12/10 00:22:48;;;;;;;10.07;4.03;;;2.60;99.90;2.40;98963.00;;;;4947198;28;93092;-70
2023/12/10 00:25:14;;;;;;;6.13;4.63;;;2.60;99.90;2.30;98963.00;;;;4950635;28;92008;-72
2023/12/10 00:27:41;;;;;;;3.77;3.43;;;2.50;99.90;2.40;98954.00;;;;4950332;28;108977;-74
2023/12/10 00:30:07;;;;;;;7.47;5.20;;;2.60;99.90;2.40;98946.00;;;;4951746;28;92984;-75
2023/12/10 00:32:33;;;;;;;5.13;4.33;;;2.60;99.90;2.40;98946.00;;;;4951403;28;93946;-74
2023/12/10 00:34:59;;;;;;;5.43;3.80;;;4.20;99.90;2.40;98944.00;;;;4946644;28;109693;-72
2023/12/10 00:37:24;;;;;;;7.30;3.60;;;2.70;99.90;2.40;98942.00;;;;4951157;28;107348;-74
2023/12/10 00:39:50;;;;;;;5.30;4.07;;;2.60;99.90;2.40;98959.00;;;;4953648;28;121082;-72
2023/12/10 00:42:16;;;;;;;7.13;4.03;;;2.50;99.90;2.40;98946.00;;;;4951606;28;121226;-73
2023/12/10 00:44:42;;;;;;;7.93;5.37;;;2.60;99.90;2.40;98943.00;;;;4950408;28;95138;-76
2023/12/10 00:47:11;;;;;;;5.87;4.67;;;2.60;99.90;2.40;98942.00;;;;4950605;28;108080;-75
2023/12/10 00:49:36;;;;;;;6.07;3.80;;;2.70;99.90;2.40;98944.00;;;;4944226;28;121489;-72
2023/12/10 00:52:02;;;;;;;5.23;3.60;;;2.60;99.90;2.40;98943.00;;;;4948111;28;120542;-74
2023/12/10 00:54:30;;;;;;;7.50;4.37;;;2.60;99.90;2.40;98962.00;;;;4948729;28;94162;-73
2023/12/10 00:56:55;;;;;;;6.90;4.60;;;2.60;99.90;2.40;98958.00;;;;4947287;28;94108;-72
2023/12/10 00:59:21;;;;;;;5.90;4.53;;;2.60;99.90;2.40;98947.00;;;;4944213;28;122161;-72
2023/12/10 01:01:47;;;;;;;5.57;3.50;;;2.60;99.90;2.40;98954.00;;;;4947179;28;121662;-74
2023/12/10 01:04:12;;;;;;;7.33;4.77;;;3.30;99.90;2.40;98957.00;;;;4945980;28;109792;-75
2023/12/10 01:06:38;;;;;;;7.60;4.43;;;2.60;99.90;2.40;98955.00;;;;4951738;28;93342;-75
2023/12/10 01:09:04;;;;;;;5.70;3.83;;;2.70;99.90;2.40;98962.00;;;;4949082;28;121645;-76
2023/12/10 01:11:30;;;;;;;4.67;3.67;;;2.70;99.90;2.40;98962.00;;;;4955205;28;92846;-75
2023/12/10 01:13:57;;;;;;;5.90;3.97;;;2.70;99.90;2.40;98961.00;;;;4931620;28;94590;-73
2023/12/10 01:16:22;;;;;;;7.30;4.03;;;2.60;99.90;2.40;98976.00;;;;4947203;28;93156;-74
2023/12/10 01:18:48;;;;;;;3.47;2.80;;;2.60;99.90;2.40;98976.00;;;;4947047;28;122310;-77
2023/12/10 01:21:13;;;;;;;4.10;3.50;;;2.70;99.90;2.40;98976.00;;;;4956245;28;122388;-74
2023/12/10 01:23:39;;;;;;;5.47;3.23;;;2.60;99.90;2.40;98970.00;;;;4950935;28;110125;-74
2023/12/10 01:26:06;;;;;;;4.57;4.07;;;2.60;99.90;2.40;98971.00;;;;4952959;28;95100;-76
2023/12/10 01:28:33;;;;;;;5.27;4.23;;;2.60;99.90;2.40;98973.00;;;;4953703;28;93908;-76
2023/12/10 01:31:00;;;;;;;3.97;3.10;;;2.60;99.90;2.40;98979.00;;;;4947392;28;93006;-75
2023/12/10 01:33:25;;;;;;;4.73;3.17;;;2.60;99.90;2.40;98990.00;;;;4946609;28;92720;-74
2023/12/10 01:35:51;;;;;;;4.60;2.90;;;2.60;99.90;2.40;98995.00;;;;4951478;28;109405;-73
2023/12/10 01:38:17;;;;;;;6.50;3.33;;;3.00;99.90;2.40;98999.00;;;;4949994;28;122426;-72
2023/12/10 01:40:42;;;;;;;6.27;2.80;;;2.50;99.90;2.40;98998.00;;;;4945807;28;121209;-73
2023/12/10 01:43:09;;;;;;;5.00;3.23;;;2.60;99.90;2.40;98985.00;;;;4954464;28;92902;-72
2023/12/10 01:45:35;;;;;;;3.27;2.63;;;2.70;99.90;2.40;98990.00;;;;4951919;28;93879;-73
2023/12/10 01:48:06;;;;;;;3.50;3.20;;;2.70;99.90;2.40;98977.00;;;;4943732;28;112479;-74
2023/12/10 01:50:38;;;;;;;5.53;3.30;;;2.50;99.90;2.40;98992.00;;;;4950231;28;93662;-77
2023/12/10 01:53:04;;;;;;;4.77;2.93;;;2.60;99.90;2.40;98985.00;;;;4950862;28;93307;-77
2023/12/10 01:55:30;;;;;;;4.07;3.07;;;2.60;99.90;2.40;98979.00;;;;4946954;28;93593;-73
2023/12/10 01:57:56;;;;;;;4.53;2.80;;;2.60;99.90;2.40;98967.00;;;;4950202;28;123150;-77
2023/12/10 02:00:21;;;;;;;3.30;3.00;;;2.60;99.90;2.40;98975.00;;;;4950914;28;120981;-77
2023/12/10 02:02:47;;;;;;;3.87;2.87;;;2.70;99.90;2.40;98976.00;;;;4952514;28;92617;-73
2023/12/10 02:05:13;;;;;;;5.37;2.90;;;2.60;99.90;2.40;98976.00;;;;4953001;28;107777;-72
2023/12/10 02:07:44;;;;;;;6.73;3.37;;;2.60;99.90;2.40;98974.00;;;;4953445;28;123473;-74
2023/12/10 02:10:10;;;;;;;4.27;2.83;;;2.60;99.90;2.40;98970.00;;;;4947384;28;93606;-76
2023/12/10 02:12:36;;;;;;;5.40;2.87;;;2.60;99.90;2.40;98964.00;;;;4951855;28;108413;-72
2023/12/10 02:15:19;;;;;;;3.10;2.80;;;2.50;99.90;2.40;98968.00;;;;4951179;28;93565;-75
2023/12/10 02:17:46;;;;;;;3.87;2.57;;;2.60;99.90;2.40;98968.00;;;;4951686;28;93354;-73
2023/12/10 02:20:13;;;;;;;1.77;1.67;;;2.60;99.90;2.40;98966.00;;;;4949252;28;96035;-72
2023/12/10 02:22:57;;;;;;;2.77;1.97;;;2.60;99.90;2.40;98966.00;;;;4952365;28;92945;-74
2023/12/10 02:25:36;;;;;;;3.43;2.43;;;2.60;99.90;2.40;98966.00;;;;4948817;28;93053;-76
2023/12/10 02:28:08;;;;;;;3.87;2.07;;;2.70;99.90;2.40;98967.00;;;;4952436;28;109067;-76
2023/12/10 02:30:35;;;;;;;3.33;2.27;;;3.70;99.90;2.40;98967.00;;;;4951563;28;101431;-74
2023/12/10 02:33:01;;;;;;;7.13;2.67;;;3.00;99.90;2.50;98956.00;;;;4949999;28;92999;-76
2023/12/10 02:35:27;;;;;;;3.07;2.47;;;3.20;99.90;2.50;98971.00;;;;4945892;28;93970;-73
2023/12/10 02:37:53;;;;;;;4.63;2.03;;;3.00;99.90;2.50;98970.00;;;;4950340;28;93233;-72
2023/12/10 02:40:19;;;;;;;3.43;2.63;;;2.70;99.90;2.50;98974.00;;;;4950828;28;92857;-74
2023/12/10 02:42:45;;;;;;;2.60;1.83;;;2.70;99.90;2.50;98972.00;;;;4947306;28;110417;-77
2023/12/10 02:45:12;;;;;;;2.37;2.00;;;2.70;99.90;2.60;98974.00;;;;4952391;28;93009;-76
2023/12/10 02:47:38;;;;;;;2.93;1.53;;;3.20;99.90;2.60;98983.00;;;;4948278;28;95146;-79
2023/12/10 02:50:05;;;;;;;2.97;1.57;;;2.90;99.90;2.60;98979.00;;;;4934172;28;97820;-75
2023/12/10 02:52:31;;;;;;;3.60;1.90;;;2.80;99.90;2.60;98976.00;;;;4949297;28;92404;-74
2023/12/10 02:54:56;;;;;;;2.37;1.57;;;2.80;99.90;2.60;98962.00;;;;4946186;28;93005;-77
2023/12/10 02:57:22;;;;;;;2.60;1.77;;;2.80;99.90;2.60;98971.00;;;;4950863;28;122982;-76
2023/12/10 02:59:48;;;;;;;2.13;1.53;;;2.80;99.90;2.60;98975.00;;;;4944848;28;122231;-77
2023/12/10 03:02:13;;;;;;;1.90;1.70;;;2.80;99.90;2.60;98969.00;;;;4933546;28;93326;-76
2023/12/10 03:04:39;;;;;;;2.87;1.20;;;2.80;99.90;2.70;98987.00;;;;4949949;28;93037;-74
2023/12/10 03:07:08;;;;;;;2.20;1.83;;;2.90;99.90;2.70;98982.00;;;;4951268;28;99700;-75
2023/12/10 03:09:35;;;;;;;2.47;1.83;;;3.60;99.90;2.70;98995.00;;;;4951440;28;93185;-76
2023/12/10 03:12:00;;;;;;;1.67;1.40;;;2.90;99.90;2.70;98982.00;;;;4953163;28;92919;-76
2023/12/10 03:14:26;;;;;;;1.47;1.03;;;3.80;99.90;2.70;98996.00;;;;4950472;28;108423;-77
2023/12/10 03:16:52;;;;;;;1.80;1.37;;;3.40;99.90;2.80;98995.00;;;;4946482;28;122116;-77
2023/12/10 03:19:17;;;;;;;1.80;1.33;;;2.90;99.90;2.80;98992.00;;;;4944121;28;119333;-74
2023/12/10 03:21:43;;;;;;;1.40;1.30;;;3.00;99.90;2.80;98997.00;;;;4947727;28;109817;-75
2023/12/10 03:24:08;;;;;;;1.17;1.10;;;3.00;99.90;2.80;98992.00;;;;4950910;28;106821;-75
2023/12/10 03:26:34;;;;;;;0.97;0.97;;;3.00;99.90;2.90;98995.00;;;;4942468;28;122200;-73
2023/12/10 03:29:00;;;;;;;2.40;1.67;;;3.00;99.90;2.90;99002.00;;;;4948431;28;113450;-74
2023/12/10 03:31:25;;;;;;;1.67;0.90;;;3.20;99.90;3.00;99017.00;;;;4950063;28;110200;-74
2023/12/10 03:33:51;;;;;;;1.40;1.27;;;3.20;99.90;3.00;99019.00;;;;4950108;28;108740;-77
2023/12/10 03:36:18;;;;;;;1.90;1.67;;;3.10;99.90;3.00;99026.00;;;;4952049;28;95200;-76
2023/12/10 03:38:44;;;;;;;1.67;1.20;;;3.30;99.90;3.00;99037.00;;;;4951195;28;120983;-74
2023/12/10 03:41:09;;;;;;;1.70;1.30;;;3.30;99.90;3.10;99027.00;;;;4953712;28;108745;-78
2023/12/10 03:43:35;;;;;;;1.07;0.97;;;3.20;99.90;3.10;99018.00;;;;4930509;28;109561;-73
2023/12/10 03:46:01;;;;;;;1.50;1.20;;;3.30;99.90;3.10;99037.00;;;;4952539;28;123413;-76
2023/12/10 03:48:26;;;;;;;1.30;1.20;;;3.30;99.90;3.10;99034.00;;;;4951876;28;95549;-77
2023/12/10 03:50:52;;;;;;;1.67;0.97;;;3.30;99.90;3.10;99033.00;;;;4950193;28;112250;-74
2023/12/10 03:53:18;;;;;;;1.10;0.80;;;3.40;99.90;3.20;99032.00;;;;4949469;28;92823;-76
2023/12/10 03:55:43;;;;;;;3.50;1.13;;;3.70;99.90;3.20;99040.00;;;;4950930;28;93911;-73
2023/12/10 03:58:09;;;;;;;1.50;1.10;;;3.30;99.90;3.20;99048.00;;;;4945864;28;122156;-74
2023/12/10 04:00:35;;;;;;;1.27;1.00;;;3.40;99.90;3.30;99036.00;;;;4945706;28;110610;-74
2023/12/10 04:03:01;;;;;;;2.10;1.20;;;3.50;99.90;3.30;99053.00;;;;4951567;28;92854;-76
2023/12/10 04:05:26;;;;;;;0.53;0.53;;;3.50;99.90;3.30;99056.00;;;;4948478;28;120676;-75
2023/12/10 04:07:52;;;;;;;0.80;0.80;;;3.50;99.90;3.40;99054.00;;;;4948597;28;92946;-76
2023/12/10 04:10:18;;;;;;;1.50;0.80;;;3.50;99.90;3.40;99071.00;;;;4950718;28;112050;-76
2023/12/10 04:12:44;;;;;;;1.07;1.00;;;3.60;99.90;3.50;99066.00;;;;4952077;28;93843;-78
2023/12/10 04:15:13;;;;;;;1.47;1.30;;;3.60;99.90;3.50;99088.00;;;;4937715;28;95835;-73
2023/12/10 04:17:38;;;;;;;1.23;1.10;;;3.70;99.90;3.50;99083.00;;;;4947495;28;114477;-75
2023/12/10 04:20:06;;;;;;;0.70;0.50;;;3.70;99.90;3.60;99073.00;;;;4951658;28;97266;-73
2023/12/10 04:22:31;;;;;;;1.27;0.60;;;3.80;99.90;3.60;99082.00;;;;4962140;28;102257;-75
2023/12/10 04:24:57;;;;;;;1.47;0.60;;;4.40;99.90;3.60;99083.00;;;;4951217;28;115369;-78
2023/12/10 04:27:23;;;;;;;1.60;0.60;;;3.90;99.90;3.70;99092.00;;;;4932814;28;121782;-78
2023/12/10 04:29:50;;;;;;;1.70;0.70;;;3.80;99.90;3.70;99094.00;;;;4950114;28;111100;-77
2023/12/10 04:32:16;;;;;;;1.60;1.00;;;3.80;99.90;3.70;99109.00;;;;4945608;28;93228;-73
2023/12/10 04:34:42;;;;;;;0.50;0.50;;;3.90;99.90;3.80;99112.00;;;;4953651;28;94340;-75
2023/12/10 04:37:08;;;;;;;2.10;1.13;;;3.80;99.90;3.80;99102.00;;;;4948322;28;93988;-76
2023/12/10 04:39:36;;;;;;;0.97;0.93;;;4.00;99.90;3.90;99119.00;;;;4947543;28;109270;-75
2023/12/10 04:42:02;;;;;;;0.57;0.50;;;4.00;99.90;3.90;99113.00;;;;4951088;28;106400;-72
2023/12/10 04:44:28;;;;;;;2.50;0.90;;;4.10;99.90;3.90;99106.00;;;;4950844;28;94038;-76
2023/12/10 04:46:54;;;;;;;1.87;1.40;;;4.30;99.90;3.90;99112.00;;;;4949684;28;122696;-74
2023/12/10 04:49:20;;;;;;;4.93;2.53;;;4.00;99.90;4.00;99120.00;;;;4947932;28;93131;-77
2023/12/10 04:51:45;;;;;;;0.90;0.70;;;4.50;99.90;4.00;99125.00;;;;4955239;28;93022;-74
2023/12/10 04:54:11;;;;;;;0.97;0.90;;;4.50;99.90;4.10;99120.00;;;;4955805;28;120580;-74
2023/12/10 04:56:37;;;;;;;0.63;0.47;;;4.30;99.90;4.10;99127.00;;;;4955348;28;93018;-75
2023/12/10 04:59:02;;;;;;;1.90;1.43;;;4.20;99.90;4.20;99129.00;;;;4949205;28;92880;-75
2023/12/10 05:01:28;;;;;;;0.73;0.73;;;4.50;99.90;4.20;99131.00;;;;4948345;28;106199;-75
2023/12/10 05:03:54;;;;;;;1.13;0.90;;;5.00;99.90;4.30;99145.00;;;;4948122;28;123421;-75
2023/12/10 05:06:19;;;;;;;1.80;0.70;;;4.50;99.90;4.30;99138.00;;;;4948391;28;98276;-75
2023/12/10 05:08:45;;;;;;;1.37;0.93;;;4.50;99.90;4.40;99138.00;;;;4947738;28;110507;-74
2023/12/10 05:11:10;;;;;;;0.63;0.63;;;4.50;99.90;4.40;99152.00;;;;4929948;28;93144;-74
2023/12/10 05:13:36;;;;;;;1.33;0.90;;;5.50;99.90;4.50;99151.00;;;;4954303;28;101590;-75
2023/12/10 05:16:03;;;;;;;0.30;0.30;;;4.60;99.90;4.50;99161.00;;;;4949821;28;120522;-74
2023/12/10 05:18:29;;;;;;;0.73;0.73;;;4.70;99.90;4.60;99174.00;;;;4947891;28;92253;-73
2023/12/10 05:20:54;;;;;;;1.23;1.07;;;5.40;99.90;4.60;99162.00;;;;4955947;28;92830;-74
2023/12/10 05:23:21;;;;;;;0.40;0.40;;;4.80;99.90;4.70;99172.00;;;;4951679;28;121962;-73
2023/12/10 05:25:52;;;;;;;0.70;0.70;;;4.70;99.90;4.70;99164.00;;;;4948776;28;94089;-74
2023/12/10 05:28:18;;;;;;;1.87;0.83;;;5.50;99.90;4.70;99171.00;;;;4949142;28;112418;-76
2023/12/10 05:30:44;;;;;;;1.03;1.03;;;5.30;99.90;4.80;99180.00;;;;4950490;28;92788;-75
2023/12/10 05:33:09;;;;;;;1.73;1.00;;;4.90;99.90;4.90;99184.00;;;;4948432;28;93472;-76
2023/12/10 05:35:35;;;;;;;1.47;1.00;;;5.70;99.90;4.90;99185.00;;;;4950343;28;122366;-75
2023/12/10 05:38:00;;;;;;;1.87;1.13;;;5.70;99.90;5.00;99212.00;;;;4950815;28;108001;-75
2023/12/10 05:40:26;;;;;;;3.90;1.23;;;5.20;99.90;5.10;99207.00;;;;4951044;28;108292;-74
2023/12/10 05:42:52;;;;;;;1.63;0.93;;;5.70;99.90;5.30;99211.00;;;;4937967;28;121575;-76
2023/12/10 05:45:18;;;;;;;2.13;0.90;;;5.70;99.90;5.30;99206.00;;;;4949942;28;94441;-76
2023/12/10 05:47:44;;;;;;;1.20;1.00;;;5.70;99.90;5.40;99220.00;;;;4945427;28;92736;-76
2023/12/10 05:50:10;;;;;;;1.60;1.10;;;5.50;99.90;5.50;99216.00;;;;4946375;28;108154;-73
2023/12/10 05:52:35;;;;;;;2.73;1.30;;;5.60;99.90;5.50;99214.00;;;;4947287;28;92947;-75
2023/12/10 05:55:01;;;;;;;8.27;2.80;;;5.60;99.90;5.50;99222.00;;;;4946930;28;121731;-74
2023/12/10 05:57:27;;;;;;;1.73;1.10;;;5.70;99.90;5.60;99220.00;;;;4949050;28;110528;-75
2023/12/10 05:59:53;;;;;;;1.57;0.80;;;6.30;99.90;5.70;99232.00;;;;4963033;28;93310;-75
2023/12/10 06:02:21;;;;;;;1.80;1.20;;;5.80;99.90;5.70;99244.00;;;;4946560;28;94831;-75
2023/12/10 06:04:47;;;;;;;4.60;1.83;;;5.90;99.90;5.70;99250.00;;;;4940704;28;113083;-75
2023/12/10 06:07:12;;;;;;;7.10;2.03;;;6.60;99.90;5.70;99250.00;;;;4949859;28;109235;-74
2023/12/10 06:09:38;;;;;;;3.37;1.53;;;5.90;99.90;5.70;99250.00;;;;4949441;28;93012;-75
2023/12/10 06:12:04;;;;;;;3.97;2.40;;;5.90;99.90;5.80;99253.00;;;;4948823;28;122240;-75
2023/12/10 06:14:30;;;;;;;4.17;2.90;;;6.00;99.90;5.80;99256.00;;;;4948110;28;111376;-76
2023/12/10 06:16:55;;;;;;;6.47;2.60;;;6.00;99.90;5.90;99252.00;;;;4949429;28;111450;-74
2023/12/10 06:19:21;;;;;;;5.43;2.57;;;6.00;99.90;5.90;99251.00;;;;4948228;28;108783;-74
2023/12/10 06:21:47;;;;;;;4.17;2.53;;;6.10;99.90;5.90;99250.00;;;;4945638;28;122543;-75
2023/12/10 06:24:12;;;;;;;2.97;1.93;;;6.10;99.90;5.90;99255.00;;;;4945451;28;123572;-74
2023/12/10 06:26:38;;;;;;;6.67;2.00;;;6.00;99.90;5.90;99261.00;;;;4949562;28;92823;-74
2023/12/10 06:29:04;;;;;;;7.67;2.17;;;6.90;99.90;5.90;99267.00;;;;4946062;28;108317;-74
2023/12/10 06:31:29;;;;;;;2.30;1.17;;;6.00;99.90;5.90;99268.00;;;;4948744;28;121323;-74
2023/12/10 06:33:55;;;;;;;1.73;1.27;;;6.10;99.90;5.90;99273.00;;;;4945777;28;92814;-74
2023/12/10 06:36:21;;;;;;;2.70;1.10;;;6.00;99.90;5.80;99268.00;;;;4946474;28;104662;-74
2023/12/10 06:38:46;;;;;;;1.17;1.07;;;6.00;99.90;5.80;99279.00;;;;4933865;28;108408;-74
2023/12/10 06:41:12;;;;;;;3.33;1.20;;;6.00;99.90;5.80;99272.00;;;;4948473;28;123533;-74
2023/12/10 06:43:38;;;;;;;10.13;1.17;;;6.00;99.90;5.80;99283.00;;;;4948165;28;122045;-74
2023/12/10 06:46:05;;;;;;;2.77;0.87;;;5.90;99.90;5.70;99280.00;;;;4953171;28;92986;-74
2023/12/10 06:48:34;;;;;;;3.03;1.40;;;5.90;99.90;5.70;99298.00;;;;4954335;28;92808;-76
2023/12/10 06:51:02;;;;;;;1.10;1.00;;;5.90;99.90;5.70;99289.00;;;;4943934;28;121192;-75
2023/12/10 06:53:27;;;;;;;4.73;1.07;;;6.00;99.90;5.70;99296.00;;;;4948723;28;93922;-75
2023/12/10 06:55:53;;;;;;;1.23;1.13;;;5.80;99.90;5.70;99307.00;;;;4951257;28;92563;-72
2023/12/10 06:58:19;;;;;;;1.23;0.70;;;6.30;99.90;5.70;99307.00;;;;4948633;28;93207;-72
2023/12/10 07:00:45;;;;;;;4.93;1.00;;;6.00;99.90;5.60;99313.00;;;;4951525;28;122095;-75
2023/12/10 07:03:10;;;;;;;1.53;0.90;;;5.80;99.90;5.60;99318.00;;;;4949695;28;93799;-75
2023/12/10 07:05:36;;;;;;;0.70;0.63;;;5.70;99.90;5.60;99323.00;;;;4950569;28;92925;-74
2023/12/10 07:08:02;;;;;;;2.67;1.03;;;5.80;99.90;5.60;99329.00;;;;4950932;28;93215;-74
2023/12/10 07:10:27;;;;;;;4.73;1.70;;;5.80;99.90;5.60;99332.00;;;;4953010;28;121921;-75
2023/12/10 07:12:54;;;;;;;2.00;1.50;;;5.70;99.90;5.60;99341.00;;;;4946913;28;121351;-74
2023/12/10 07:15:20;;;;;;;3.50;1.53;;;5.70;99.90;5.60;99341.00;;;;4931362;28;93457;-74
2023/12/10 07:17:45;;;;;;;2.10;1.47;;;5.70;99.90;5.60;99344.00;;;;4946074;28;93028;-73
2023/12/10 07:20:11;;;;;;;3.33;1.77;;;6.50;99.90;5.60;99360.00;;;;4944524;28;124994;-73
2023/12/10 07:22:37;;;;;;;3.90;1.53;;;5.70;99.90;5.60;99352.00;;;;4944698;28;94550;-72
2023/12/10 07:25:06;;;;;;;4.57;1.77;;;6.30;99.90;5.60;99358.00;;;;4944986;28;106728;-74
2023/12/10 07:27:32;;;;;;;3.43;1.63;;;5.80;99.90;5.60;99356.00;;;;4946373;28;94366;-74
2023/12/10 07:29:58;;;;;;;2.43;1.57;;;5.80;99.90;5.70;99373.00;;;;4944860;28;94136;-72
2023/12/10 07:32:24;;;;;;;5.73;1.73;;;5.80;99.90;5.70;99364.00;;;;4947025;28;121244;-72
2023/12/10 07:34:50;;;;;;;2.03;1.20;;;6.50;99.90;5.70;99373.00;;;;4944957;28;110958;-72
2023/12/10 07:37:16;;;;;;;1.73;1.43;;;5.90;99.90;5.80;99379.00;;;;4948970;28;108923;-71
2023/12/10 07:39:42;;;;;;;9.47;1.57;;;5.90;99.90;5.80;99366.00;;;;4952163;28;93432;-72
2023/12/10 07:42:07;;;;;;;4.63;2.17;;;6.00;99.90;5.90;99372.00;;;;4944842;28;93098;-72
2023/12/10 07:44:33;;;;;;;2.80;1.80;;;6.00;99.90;5.90;99377.00;;;;4949204;28;110423;-71
2023/12/10 07:46:59;;;;;;;4.00;2.07;;;6.10;99.90;6.00;99371.00;;;;4946978;28;110412;-72
2023/12/10 07:49:25;;;;;;;3.20;1.47;;;6.20;99.90;6.00;99374.00;;;;4947071;28;123630;-73
2023/12/10 07:51:51;;;;;;;8.37;2.03;;;6.20;99.90;6.00;99382.00;;;;4951202;28;94383;-70
2023/12/10 07:54:16;;;;;;;4.33;1.50;;;6.20;99.90;6.10;99390.00;;;;4949618;28;110426;-73
2023/12/10 07:56:42;;;;;;;3.93;2.07;;;6.60;99.90;6.10;99393.00;;;;4942227;28;108067;-70
2023/12/10 07:59:08;;;;;;;2.23;1.80;;;6.80;99.90;6.10;99402.00;;;;4946471;28;121702;-70
2023/12/10 08:01:33;;;;;;;1.80;1.70;;;6.30;99.90;6.20;99393.00;;;;4943467;28;123101;-70
2023/12/10 08:03:59;;;;;;;6.83;1.80;;;6.30;99.90;6.20;99396.00;;;;4945928;28;110340;-73
2023/12/10 08:06:24;;;;;;;7.13;2.27;;;6.30;99.90;6.30;99399.00;;;;4950826;28;93194;-72
2023/12/10 08:08:50;;;;;;;5.73;1.67;;;6.40;99.90;6.30;99405.00;;;;4944901;28;119393;-71
2023/12/10 08:11:16;;;;;;;4.73;2.07;;;6.50;99.90;6.30;99402.00;;;;4947685;28;121580;-71
2023/12/10 08:13:42;;;;;;;5.70;2.00;;;6.70;99.90;6.40;99403.00;;;;4945451;28;93718;-71
2023/12/10 08:16:08;;;;;;;12.37;1.87;;;6.60;99.90;6.40;99397.00;;;;4945240;28;94011;-70
2023/12/10 08:18:34;;;;;;;3.80;1.57;;;6.60;99.90;6.50;99414.00;;;;4944649;28;93177;-73
2023/12/10 08:21:01;;;;;;;7.53;2.13;;;6.60;99.90;6.50;99414.00;;;;4948262;28;121379;-73
2023/12/10 08:23:26;;;;;;;1.57;1.40;;;6.90;99.90;6.60;99422.00;;;;4945470;28;93467;-71
2023/12/10 08:25:52;;;;;;;2.93;1.47;;;6.70;99.90;6.60;99413.00;;;;4946562;28;101359;-73
2023/12/10 08:28:18;;;;;;;4.73;1.60;;;6.80;99.90;6.60;99420.00;;;;4945854;28;114880;-74
2023/12/10 08:30:43;;;;;;;3.23;1.73;;;6.70;99.90;6.60;99418.00;;;;4931084;28;121359;-74
2023/12/10 08:33:09;;;;;;;2.63;0.87;;;6.40;99.90;6.70;99419.00;;;;4944340;28;110414;-71
2023/12/10 08:35:35;;;;;;;4.30;1.40;;;6.90;99.90;6.70;99430.00;;;;4946166;28;108373;-72
2023/12/10 08:38:00;;;;;;;4.63;1.57;;;6.90;99.90;6.70;99437.00;;;;4939221;28;122073;-72
2023/12/10 08:40:26;;;;;;;1.37;1.20;;;7.00;99.90;6.70;99433.00;;;;4948887;28;121472;-74
2023/12/10 08:42:52;;;;;;;1.27;1.17;;;7.20;99.90;6.70;99429.00;;;;4935641;28;109809;-74
2023/12/10 08:45:18;;;;;;;2.77;1.30;;;7.30;99.90;6.80;99432.00;;;;4947293;28;92894;-74
2023/12/10 08:47:43;;;;;;;1.17;0.90;;;7.00;99.90;6.80;99437.00;;;;4945592;28;110054;-71
2023/12/10 08:50:09;;;;;;;7.03;1.80;;;7.00;99.90;6.80;99447.00;;;;4947170;28;123141;-74
2023/12/10 08:52:35;;;;;;;7.63;1.87;;;7.00;99.90;6.90;99437.00;;;;4940367;28;93255;-72
2023/12/10 08:55:01;;;;;;;6.33;1.53;;;7.00;99.90;6.90;99442.00;;;;4963228;28;93422;-74
2023/12/10 08:57:27;;;;;;;8.57;1.43;;;7.10;99.90;7.00;99439.00;;;;4948877;28;93387;-71
2023/12/10 08:59:52;;;;;;;7.13;2.00;;;7.60;99.90;7.00;99439.00;;;;4940554;28;120927;-70
2023/12/10 09:02:19;;;;;;;7.23;1.80;;;7.20;99.90;7.10;99446.00;;;;4946928;28;92964;-69
2023/12/10 09:04:46;;;;;;;6.93;1.77;;;7.20;99.90;7.10;99436.00;;;;4943920;28;101239;-70
2023/12/10 09:07:12;;;;;;;1.77;1.40;;;7.20;99.90;7.10;99449.00;;;;4947517;28;93744;-72
2023/12/10 09:09:37;;;;;;;9.80;1.83;;;7.20;99.90;7.20;99442.00;;;;4944473;28;122707;-70
2023/12/10 09:12:03;;;;;;;11.57;2.40;;;7.40;99.90;7.30;99441.00;;;;4946195;28;93522;-73
2023/12/10 09:14:29;;;;;;;5.77;2.13;;;7.40;99.90;7.30;99455.00;;;;4945984;28;98944;-71
2023/12/10 09:16:55;;;;;;;7.10;1.57;;;7.50;99.90;7.40;99438.00;;;;4943523;28;121253;-69
2023/12/10 09:19:22;;;;;;;6.90;2.30;;;7.50;99.90;7.50;99455.00;;;;4941130;28;93144;-69
2023/12/10 09:21:48;;;;;;;3.20;1.70;;;7.60;99.90;7.50;99463.00;;;;4945776;28;92182;-70
2023/12/10 09:24:14;;;;;;;6.23;1.50;;;7.60;99.90;7.60;99463.00;;;;4948857;28;109532;-71
2023/12/10 09:26:40;;;;;;;4.67;1.37;;;7.70;99.90;7.60;99462.00;;;;4942515;28;93750;-69
2023/12/10 09:29:05;;;;;;;8.90;2.30;;;7.70;99.90;7.60;99467.00;;;;4941905;28;122497;-69
2023/12/10 09:31:31;;;;;;;3.80;2.07;;;7.80;99.90;7.70;99468.00;;;;4942291;28;110788;-71
2023/12/10 09:33:57;;;;;;;5.33;1.50;;;7.80;99.90;7.70;99470.00;;;;4945010;28;110255;-70
2023/12/10 09:36:22;;;;;;;4.93;2.20;;;7.80;99.90;7.80;99465.00;;;;4945437;28;94259;-70
2023/12/10 09:38:48;;;;;;;6.70;1.57;;;7.80;99.90;7.80;99465.00;;;;4940531;28;121909;-72
2023/12/10 09:41:14;;;;;;;6.77;1.97;;;7.90;99.90;7.90;99469.00;;;;4949078;28;93090;-72
2023/12/10 09:43:40;;;;;;;3.50;1.80;;;8.00;99.90;8.00;99470.00;;;;4954219;28;93007;-72
2023/12/10 09:46:08;;;;;;;2.40;2.07;;;8.10;99.90;8.00;99475.00;;;;4947945;28;93834;-73
2023/12/10 09:48:34;;;;;;;3.73;1.77;;;8.10;99.90;8.10;99479.00;;;;4949074;28;93260;-70
2023/12/10 09:51:00;;;;;;;4.93;1.73;;;8.20;99.90;8.10;99475.00;;;;4943611;28;109508;-70
2023/12/10 09:53:27;;;;;;;2.60;1.57;;;8.20;99.90;8.10;99478.00;;;;4950909;28;93896;-72
2023/12/10 09:55:52;;;;;;;9.50;2.23;;;8.30;99.90;8.20;99483.00;;;;4952193;28;121544;-71
2023/12/10 09:58:18;;;;;;;6.37;2.87;;;8.30;99.90;8.20;99482.00;;;;4948803;28;121748;-72
2023/12/10 10:00:44;;;;;;;6.00;2.37;;;8.30;99.90;8.30;99477.00;;;;4952100;28;110862;-71
2023/12/10 10:03:11;;;;;;;6.50;2.23;;;8.40;99.90;8.20;99471.00;;;;4940962;28;109414;-71
2023/12/10 10:05:36;;;;;;;3.90;1.97;;;8.40;99.90;8.10;99493.00;;;;4946832;28;114340;-70
2023/12/10 10:08:02;;;;;;;4.63;2.27;;;8.30;99.90;8.10;99491.00;;;;4941809;28;122039;-71
2023/12/10 10:10:29;;;;;;;7.57;2.53;;;8.30;99.90;8.00;99486.00;;;;4947602;28;92378;-69
2023/12/10 10:12:55;;;;;;;9.03;2.13;;;8.20;99.90;7.90;99488.00;;;;4944881;28;92807;-70
2023/12/10 10:15:29;;;;;;;3.37;1.97;;;8.10;99.90;7.90;99493.00;;;;4948850;28;93198;-76
2023/12/10 10:17:55;;;;;;;3.10;1.50;;;8.00;99.90;7.80;99486.00;;;;4948734;28;94143;-74
2023/12/10 10:20:22;;;;;;;4.70;1.73;;;8.00;99.90;7.70;99500.00;;;;4934123;28;93156;-75
2023/12/10 10:22:49;;;;;;;7.13;2.20;;;7.90;99.90;7.70;99502.00;;;;4943231;28;93244;-75
2023/12/10 10:25:15;;;;;;;4.83;1.73;;;7.90;99.90;7.70;99502.00;;;;4952876;28;94227;-75
2023/12/10 10:27:40;;;;;;;8.20;2.03;;;7.80;99.90;7.60;99501.00;;;;4932173;28;115814;-75
2023/12/10 10:30:07;;;;;;;5.77;2.00;;;7.80;99.90;7.70;99512.00;;;;4947574;28;109465;-77
2023/12/10 10:32:33;;;;;;;3.47;1.60;;;7.80;99.90;7.60;99497.00;;;;4948410;28;93780;-76
2023/12/10 10:35:03;;;;;;;4.93;2.17;;;7.70;99.90;7.60;99507.00;;;;4947158;28;120647;-75
2023/12/10 10:37:29;;;;;;;7.23;2.10;;;7.70;99.90;7.60;99500.00;;;;4948734;28;93383;-74
2023/12/10 10:39:56;;;;;;;9.47;2.07;;;7.80;99.90;7.60;99514.00;;;;4945420;28;110611;-74
2023/12/10 10:42:22;;;;;;;1.23;1.13;;;7.80;99.90;7.60;99507.00;;;;4943654;28;94113;-73
2023/12/10 10:44:48;;;;;;;2.90;1.40;;;7.60;99.90;7.60;99510.00;;;;4949675;28;98674;-76
2023/12/10 10:47:18;;;;;;;5.60;1.50;;;8.20;99.90;7.60;99513.00;;;;4952073;28;93087;-73
2023/12/10 10:49:56;;;;;;;10.17;2.27;;;7.80;99.90;7.50;99520.00;;;;4950151;28;93013;-73
2023/12/10 10:52:27;;;;;;;4.20;2.20;;;7.80;99.90;7.50;99506.00;;;;4957277;28;92770;-73
2023/12/10 10:54:55;;;;;;;3.17;1.50;;;7.50;99.90;7.50;99502.00;;;;4932136;28;95107;-77
2023/12/10 10:57:34;;;;;;;2.90;1.50;;;7.70;99.90;7.60;99511.00;;;;4936273;28;95823;-76
2023/12/10 10:59:59;;;;;;;3.40;1.40;;;7.70;99.90;7.60;99500.00;;;;4947674;28;92305;-77